createdAt,value
2017-12-19T00:00:36.133Z,-7.52
2017-12-19T00:01:45.848Z,-7.41
2017-12-19T00:02:55.823Z,-7.42
2017-12-19T00:04:05.804Z,-7.44
2017-12-19T00:05:15.783Z,-7.38
2017-12-19T00:06:25.529Z,-7.38
2017-12-19T00:07:35.507Z,-7.32
2017-12-19T00:08:45.222Z,-7.35
2017-12-19T00:09:54.942Z,-7.28
2017-12-19T00:11:04.986Z,-7.23
2017-12-19T00:12:14.965Z,-7.34
2017-12-19T00:13:24.943Z,-7.28
2017-12-19T00:14:34.649Z,-7.3
2017-12-19T00:15:44.625Z,-7.25
2017-12-19T00:16:54.341Z,-7.2
2017-12-19T00:18:04.316Z,-7.07
2017-12-19T00:19:14.293Z,-7.07
2017-12-19T00:20:24.008Z,-7.09
2017-12-19T00:21:34.014Z,-7.07
2017-12-19T00:22:43.989Z,-7
2017-12-19T00:23:53.963Z,-6.96
2017-12-19T00:25:03.674Z,-6.97
2017-12-19T00:26:13.390Z,-6.89
2017-12-19T00:27:23.365Z,-6.91
2017-12-19T00:28:33.346Z,-6.82
2017-12-19T00:29:43.328Z,-6.84
2017-12-19T00:30:53.310Z,-6.89
2017-12-19T00:32:03.288Z,-6.91
2017-12-19T00:33:12.733Z,-6.85
2017-12-19T00:34:22.713Z,-6.75
2017-12-19T00:35:32.426Z,-6.85
2017-12-19T00:36:42.403Z,-6.82
2017-12-19T00:37:52.401Z,-6.76
2017-12-19T00:39:02.110Z,-6.73
2017-12-19T00:40:11.825Z,-6.73
2017-12-19T00:41:21.801Z,-6.73
2017-12-19T00:42:31.779Z,-6.66
2017-12-19T00:43:41.753Z,-6.68
2017-12-19T00:44:51.471Z,-6.71
2017-12-19T00:46:01.449Z,-6.71
2017-12-19T00:47:11.425Z,-6.78
2017-12-19T00:48:21.398Z,-6.73
2017-12-19T00:49:31.386Z,-6.73
2017-12-19T00:50:43.717Z,-6.73
2017-12-19T00:51:53.425Z,-6.73
2017-12-19T00:53:03.137Z,-6.71
2017-12-19T00:54:12.845Z,-6.52
2017-12-19T00:55:22.293Z,-6.52
2017-12-19T00:56:32.275Z,-6.54
2017-12-19T00:57:42.252Z,-6.52
2017-12-19T00:58:52.229Z,-6.58
2017-12-19T01:00:02.208Z,-6.49
2017-12-19T01:01:11.919Z,-6.52
2017-12-19T01:02:21.896Z,-6.51
2017-12-19T01:03:31.881Z,-6.39
2017-12-19T01:04:41.333Z,-6.56
2017-12-19T01:05:51.311Z,-6.51
2017-12-19T01:07:01.292Z,-6.64
2017-12-19T01:08:11.003Z,-6.64
2017-12-19T01:09:20.979Z,-6.54
2017-12-19T01:10:30.956Z,-6.52
2017-12-19T01:11:40.983Z,-6.49
2017-12-19T01:12:50.964Z,-6.54
2017-12-19T01:14:00.941Z,-6.54
2017-12-19T01:15:10.917Z,-6.49
2017-12-19T01:16:20.630Z,-6.56
2017-12-19T01:17:30.352Z,-6.46
2017-12-19T01:18:40.327Z,-6.58
2017-12-19T01:19:50.309Z,-6.42
2017-12-19T01:21:00.349Z,-6.46
2017-12-19T01:22:10.330Z,-6.52
2017-12-19T01:23:20.353Z,-6.49
2017-12-19T01:24:30.064Z,-6.52
2017-12-19T01:25:39.773Z,-6.6
2017-12-19T01:26:49.756Z,-6.58
2017-12-19T01:27:59.466Z,-6.56
2017-12-19T01:29:08.975Z,-6.61
2017-12-19T01:30:18.688Z,-6.7
2017-12-19T01:31:28.686Z,-6.7
2017-12-19T01:32:38.661Z,-6.64
2017-12-19T01:33:48.706Z,-6.6
2017-12-19T01:34:58.692Z,-6.61
2017-12-19T01:36:08.672Z,-6.6
2017-12-19T01:37:18.669Z,-6.49
2017-12-19T01:38:28.646Z,-6.48
2017-12-19T01:39:38.630Z,-6.52
2017-12-19T01:40:48.343Z,-6.45
2017-12-19T01:41:58.316Z,-6.54
2017-12-19T01:43:08.292Z,-6.48
2017-12-19T01:44:17.741Z,-6.44
2017-12-19T01:45:27.726Z,-6.46
2017-12-19T01:46:37.714Z,-6.45
2017-12-19T01:47:47.698Z,-6.38
2017-12-19T01:48:57.415Z,-6.39
2017-12-19T01:50:07.124Z,-6.31
2017-12-19T01:51:17.105Z,-6.31
2017-12-19T01:52:26.556Z,-6.27
2017-12-19T01:53:36.533Z,-6.23
2017-12-19T01:54:46.515Z,-6.33
2017-12-19T01:55:56.490Z,-6.3
2017-12-19T01:57:06.468Z,-6.21
2017-12-19T01:58:16.441Z,-6.21
2017-12-19T01:59:26.431Z,-6.3
2017-12-19T02:00:36.410Z,-6.21
2017-12-19T02:01:46.124Z,-6.23
2017-12-19T02:02:56.112Z,-6.12
2017-12-19T02:04:06.098Z,-6.09
2017-12-19T02:05:15.806Z,-6.07
2017-12-19T02:06:25.516Z,-6.09
2017-12-19T02:07:35.495Z,-6.12
2017-12-19T02:08:45.476Z,-6.02
2017-12-19T02:09:55.458Z,-6.09
2017-12-19T02:11:05.436Z,-6.03
2017-12-19T02:12:15.417Z,-6.02
2017-12-19T02:13:25.394Z,-6.05
2017-12-19T02:14:35.377Z,-6.1
2017-12-19T02:15:45.091Z,-6.07
2017-12-19T02:16:55.066Z,-6.15
2017-12-19T02:18:05.042Z,-6.13
2017-12-19T02:19:14.762Z,-6.23
2017-12-19T02:20:24.743Z,-6.23
2017-12-19T02:21:34.740Z,-6.41
2017-12-19T02:22:44.727Z,-6.42
2017-12-19T02:23:54.752Z,-6.36
2017-12-19T02:25:04.732Z,-6.39
2017-12-19T02:26:14.443Z,-6.33
2017-12-19T02:27:24.420Z,-6.34
2017-12-19T02:28:34.403Z,-6.26
2017-12-19T02:29:44.115Z,-6.28
2017-12-19T02:30:54.088Z,-6.24
2017-12-19T02:32:04.079Z,-6.18
2017-12-19T02:33:14.063Z,-6.1
2017-12-19T02:34:24.041Z,-6.07
2017-12-19T02:35:34.028Z,-6.07
2017-12-19T02:36:44.009Z,-6.33
2017-12-19T02:37:53.726Z,-6.31
2017-12-19T02:39:03.437Z,-6.24
2017-12-19T02:40:12.617Z,-6.23
2017-12-19T02:41:24.594Z,-6.36
2017-12-19T02:42:34.573Z,-6.38
2017-12-19T02:43:44.552Z,-6.38
2017-12-19T02:44:54.591Z,-6.41
2017-12-19T02:46:04.569Z,-6.51
2017-12-19T02:47:14.021Z,-6.51
2017-12-19T02:48:24.003Z,-6.48
2017-12-19T02:49:33.979Z,-6.6
2017-12-19T02:50:43.961Z,-6.54
2017-12-19T02:51:53.934Z,-6.51
2017-12-19T02:53:03.909Z,-6.61
2017-12-19T02:54:13.891Z,-6.61
2017-12-19T02:55:23.867Z,-6.68
2017-12-19T02:56:33.847Z,-6.78
2017-12-19T02:57:43.820Z,-6.86
2017-12-19T02:58:53.804Z,-6.85
2017-12-19T03:00:03.780Z,-6.79
2017-12-19T03:01:13.487Z,-6.89
2017-12-19T03:02:23.197Z,-6.89
2017-12-19T03:03:33.174Z,-6.95
2017-12-19T03:04:43.152Z,-6.85
2017-12-19T03:05:53.131Z,-6.88
2017-12-19T03:07:03.106Z,-6.82
2017-12-19T03:08:13.083Z,-6.89
2017-12-19T03:09:23.063Z,-7.03
2017-12-19T03:10:32.825Z,-7.03
2017-12-19T03:11:42.806Z,-7.05
2017-12-19T03:12:52.795Z,-7.09
2017-12-19T03:14:02.769Z,-7.13
2017-12-19T03:15:12.217Z,-7.21
2017-12-19T03:16:22.192Z,-7.23
2017-12-19T03:17:32.169Z,-7.23
2017-12-19T03:18:41.879Z,-7.24
2017-12-19T03:19:51.856Z,-7.17
2017-12-19T03:21:01.834Z,-7.23
2017-12-19T03:22:11.548Z,-7.21
2017-12-19T03:23:21.529Z,-7.3
2017-12-19T03:24:31.502Z,-7.27
2017-12-19T03:25:41.213Z,-7.24
2017-12-19T03:26:50.927Z,-7.32
2017-12-19T03:28:00.906Z,-7.34
2017-12-19T03:29:10.890Z,-7.25
2017-12-19T03:30:20.876Z,-7.28
2017-12-19T03:31:30.870Z,-7.38
2017-12-19T03:32:40.857Z,-7.3
2017-12-19T03:33:50.840Z,-7.34
2017-12-19T03:35:00.821Z,-7.38
2017-12-19T03:36:10.807Z,-7.36
2017-12-19T03:37:20.535Z,-7.3
2017-12-19T03:38:30.251Z,-7.28
2017-12-19T03:39:40.227Z,-7.28
2017-12-19T03:40:49.950Z,-7.1
2017-12-19T03:41:59.657Z,-7.17
2017-12-19T03:43:09.636Z,-7.14
2017-12-19T03:44:19.647Z,-7.03
2017-12-19T03:45:29.632Z,-7.03
2017-12-19T03:46:39.610Z,-7.07
2017-12-19T03:47:49.589Z,-6.99
2017-12-19T03:48:59.570Z,-6.95
2017-12-19T03:50:09.284Z,-6.99
2017-12-19T03:51:18.992Z,-6.82
2017-12-19T03:52:28.972Z,-6.73
2017-12-19T03:53:38.766Z,-6.82
2017-12-19T03:54:48.757Z,-6.76
2017-12-19T03:55:58.745Z,-6.71
2017-12-19T03:57:08.456Z,-6.67
2017-12-19T03:58:18.173Z,-6.64
2017-12-19T03:59:28.149Z,-6.6
2017-12-19T04:03:26.236Z,-6.54
2017-12-19T04:04:36.228Z,-6.6
2017-12-19T04:05:46.217Z,-6.58
2017-12-19T04:06:56.199Z,-6.6
2017-12-19T04:08:06.203Z,-6.46
2017-12-19T04:09:15.650Z,-6.44
2017-12-19T04:10:25.370Z,-6.44
2017-12-19T04:11:35.357Z,-6.34
2017-12-19T04:12:45.332Z,-6.31
2017-12-19T04:13:55.307Z,-6.31
2017-12-19T04:15:05.018Z,-6.24
2017-12-19T04:16:14.999Z,-6.13
2017-12-19T04:17:24.977Z,-6.2
2017-12-19T04:18:34.958Z,-6.33
2017-12-19T04:19:44.458Z,-6.49
2017-12-19T04:20:54.434Z,-6.54
2017-12-19T04:22:04.143Z,-6.66
2017-12-19T04:23:14.119Z,-6.75
2017-12-19T04:24:24.100Z,-6.88
2017-12-19T04:25:34.083Z,-6.78
2017-12-19T04:26:43.791Z,-6.82
2017-12-19T04:27:53.831Z,-6.84
2017-12-19T04:29:03.814Z,-6.79
2017-12-19T04:30:13.841Z,-6.76
2017-12-19T04:31:23.825Z,-6.68
2017-12-19T04:32:33.804Z,-6.63
2017-12-19T04:33:43.797Z,-6.63
2017-12-19T04:34:53.243Z,-6.51
2017-12-19T04:36:02.956Z,-6.51
2017-12-19T04:37:12.678Z,-6.51
2017-12-19T04:38:22.657Z,-6.56
2017-12-19T04:39:32.645Z,-6.58
2017-12-19T04:40:42.622Z,-6.45
2017-12-19T04:41:52.599Z,-6.49
2017-12-19T04:43:02.578Z,-6.42
2017-12-19T04:44:12.558Z,-6.39
2017-12-19T04:45:22.276Z,-6.34
2017-12-19T04:46:32.259Z,-6.34
2017-12-19T04:47:41.970Z,-6.36
2017-12-19T04:48:51.977Z,-6.38
2017-12-19T04:50:01.960Z,-6.31
2017-12-19T04:51:11.940Z,-6.31
2017-12-19T04:52:21.651Z,-6.31
2017-12-19T04:53:31.375Z,-6.24
2017-12-19T04:54:41.351Z,-6.23
2017-12-19T04:55:51.333Z,-6.26
2017-12-19T04:57:01.309Z,-6.27
2017-12-19T04:58:11.285Z,-6.21
2017-12-19T04:59:21.262Z,-6.15
2017-12-19T05:00:31.246Z,-6.06
2017-12-19T05:01:41.223Z,-6.09
2017-12-19T05:02:51.215Z,-6.1
2017-12-19T05:04:01.193Z,-6.07
2017-12-19T05:05:11.236Z,-6.1
2017-12-19T05:06:20.960Z,-6.03
2017-12-19T05:07:30.674Z,-5.97
2017-12-19T05:08:40.690Z,-5.92
2017-12-19T05:09:50.672Z,-5.92
2017-12-19T05:11:00.666Z,-5.82
2017-12-19T05:12:10.650Z,-5.7
2017-12-19T05:13:20.630Z,-5.68
2017-12-19T05:14:30.675Z,-5.66
2017-12-19T05:15:40.670Z,-5.66
2017-12-19T05:16:50.648Z,-5.73
2017-12-19T05:18:00.625Z,-5.59
2017-12-19T05:19:10.600Z,-5.81
2017-12-19T05:20:20.585Z,-5.73
2017-12-19T05:21:30.562Z,-5.81
2017-12-19T05:22:40.542Z,-5.84
2017-12-19T05:23:50.515Z,-5.94
2017-12-19T05:25:00.241Z,-5.87
2017-12-19T05:26:10.216Z,-5.85
2017-12-19T05:27:19.930Z,-5.99
2017-12-19T05:28:29.699Z,-5.92
2017-12-19T05:29:39.412Z,-5.71
2017-12-19T05:30:49.392Z,-5.77
2017-12-19T05:31:59.105Z,-5.77
2017-12-19T05:33:09.164Z,-5.76
2017-12-19T05:34:19.142Z,-5.85
2017-12-19T05:35:29.142Z,-5.84
2017-12-19T05:36:39.129Z,-5.74
2017-12-19T05:37:49.105Z,-5.85
2017-12-19T05:38:59.085Z,-5.82
2017-12-19T05:40:08.531Z,-5.78
2017-12-19T05:41:18.515Z,-5.82
2017-12-19T05:42:28.235Z,-5.74
2017-12-19T05:43:38.279Z,-5.68
2017-12-19T05:44:47.729Z,-5.68
2017-12-19T05:45:57.709Z,-5.68
2017-12-19T05:47:07.691Z,-5.66
2017-12-19T05:48:17.732Z,-5.68
2017-12-19T05:49:27.450Z,-5.73
2017-12-19T05:50:37.433Z,-5.7
2017-12-19T05:51:47.411Z,-5.74
2017-12-19T05:52:57.393Z,-5.76
2017-12-19T05:54:07.372Z,-5.7
2017-12-19T05:55:17.085Z,-5.68
2017-12-19T05:56:27.068Z,-5.67
2017-12-19T05:57:37.045Z,-5.63
2017-12-19T05:58:47.031Z,-5.58
2017-12-19T05:59:57.016Z,-5.53
2017-12-19T06:01:06.997Z,-5.48
2017-12-19T06:02:16.972Z,-5.59
2017-12-19T06:03:27.651Z,-5.49
2017-12-19T06:04:37.633Z,-5.5
2017-12-19T06:05:47.663Z,-5.52
2017-12-19T06:06:57.637Z,-5.56
2017-12-19T06:08:07.610Z,-5.5
2017-12-19T06:09:17.318Z,-5.48
2017-12-19T06:10:27.296Z,-5.53
2017-12-19T06:11:37.280Z,-5.56
2017-12-19T06:12:47.258Z,-5.45
2017-12-19T06:13:57.235Z,-5.39
2017-12-19T06:15:07.222Z,-5.53
2017-12-19T06:16:17.201Z,-5.5
2017-12-19T06:17:26.910Z,-5.55
2017-12-19T06:18:36.893Z,-5.5
2017-12-19T06:19:46.606Z,-5.46
2017-12-19T06:20:56.583Z,-5.45
2017-12-19T06:22:06.562Z,-5.46
2017-12-19T06:23:16.539Z,-5.43
2017-12-19T06:24:26.509Z,-5.35
2017-12-19T06:25:36.486Z,-5.41
2017-12-19T06:26:46.471Z,-5.48
2017-12-19T06:27:56.449Z,-5.5
2017-12-19T06:29:06.167Z,-5.49
2017-12-19T06:30:16.157Z,-5.48
2017-12-19T06:31:26.135Z,-5.58
2017-12-19T06:32:35.851Z,-5.59
2017-12-19T06:33:45.836Z,-5.55
2017-12-19T06:34:55.816Z,-5.56
2017-12-19T06:36:05.804Z,-5.58
2017-12-19T06:37:15.780Z,-5.64
2017-12-19T06:38:25.539Z,-5.67
2017-12-19T06:39:35.519Z,-5.67
2017-12-19T06:40:45.232Z,-5.71
2017-12-19T06:41:55.213Z,-5.78
2017-12-19T06:43:05.194Z,-5.74
2017-12-19T06:44:15.171Z,-5.68
2017-12-19T06:45:25.149Z,-5.7
2017-12-19T06:46:35.434Z,-5.7
2017-12-19T06:47:45.417Z,-5.66
2017-12-19T06:48:55.393Z,-5.76
2017-12-19T06:50:05.106Z,-5.73
2017-12-19T06:51:14.820Z,-5.74
2017-12-19T06:52:24.803Z,-5.71
2017-12-19T06:53:34.782Z,-5.7
2017-12-19T06:54:44.496Z,-5.73
2017-12-19T06:55:54.475Z,-5.68
2017-12-19T06:57:04.451Z,-5.64
2017-12-19T06:58:14.435Z,-5.6
2017-12-19T06:59:24.414Z,-5.59
2017-12-19T07:00:34.395Z,-5.5
2017-12-19T07:01:44.383Z,-5.52
2017-12-19T07:02:54.360Z,-5.41
2017-12-19T07:04:04.075Z,-5.31
2017-12-19T07:05:14.054Z,-5.2
2017-12-19T07:06:24.036Z,-5.2
2017-12-19T07:07:34.013Z,-5.16
2017-12-19T07:08:43.992Z,-5.13
2017-12-19T07:09:53.987Z,-5.19
2017-12-19T07:11:03.969Z,-5.12
2017-12-19T07:12:13.949Z,-5.2
2017-12-19T07:13:23.670Z,-5.2
2017-12-19T07:14:33.649Z,-5.17
2017-12-19T07:15:43.624Z,-5.28
2017-12-19T07:16:53.607Z,-5.27
2017-12-19T07:18:03.320Z,-5.39
2017-12-19T07:19:13.037Z,-5.37
2017-12-19T07:20:23.022Z,-5.3
2017-12-19T07:21:33.008Z,-5.34
2017-12-19T07:22:42.989Z,-5.43
2017-12-19T07:23:52.974Z,-5.41
2017-12-19T07:25:02.956Z,-5.39
2017-12-19T07:26:12.675Z,-5.46
2017-12-19T07:27:22.660Z,-5.45
2017-12-19T07:28:32.377Z,-5.46
2017-12-19T07:29:41.826Z,-5.43
2017-12-19T07:30:51.862Z,-5.41
2017-12-19T07:32:01.573Z,-5.45
2017-12-19T07:33:11.335Z,-5.41
2017-12-19T07:34:21.056Z,-5.31
2017-12-19T07:35:31.041Z,-5.38
2017-12-19T07:36:41.019Z,-5.37
2017-12-19T07:37:51.001Z,-5.25
2017-12-19T07:39:02.677Z,-5.28
2017-12-19T07:40:12.653Z,-5.25
2017-12-19T07:41:22.633Z,-5.28
2017-12-19T07:42:32.618Z,-5.3
2017-12-19T07:43:42.334Z,-5.25
2017-12-19T07:44:52.536Z,-5.27
2017-12-19T07:46:02.303Z,-5.3
2017-12-19T07:47:12.279Z,-5.32
2017-12-19T07:48:22.312Z,-5.31
2017-12-19T07:49:32.291Z,-5.28
2017-12-19T07:50:42.351Z,-5.25
2017-12-19T07:51:52.337Z,-5.37
2017-12-19T07:53:02.318Z,-5.37
2017-12-19T07:54:11.820Z,-5.38
2017-12-19T07:55:21.804Z,-5.43
2017-12-19T07:56:31.790Z,-5.45
2017-12-19T07:57:41.774Z,-5.41
2017-12-19T07:58:51.753Z,-5.43
2017-12-19T08:00:01.753Z,-5.28
2017-12-19T08:01:11.474Z,-5.19
2017-12-19T08:02:21.482Z,-5.27
2017-12-19T08:03:31.182Z,-5.25
2017-12-19T08:04:41.167Z,-5.27
2017-12-19T08:05:50.890Z,-5.28
2017-12-19T08:07:00.608Z,-5.28
2017-12-19T08:08:10.322Z,-5.19
2017-12-19T08:09:20.300Z,-5.19
2017-12-19T08:10:30.278Z,-5.17
2017-12-19T08:11:40.260Z,-5.12
2017-12-19T08:12:50.239Z,-5.1
2017-12-19T08:14:01.957Z,-5.06
2017-12-19T08:15:11.672Z,-5.05
2017-12-19T08:16:21.656Z,-5.01
2017-12-19T08:17:31.643Z,-5.06
2017-12-19T08:18:41.626Z,-4.92
2017-12-19T08:19:51.607Z,-4.84
2017-12-19T08:21:01.655Z,-4.87
2017-12-19T08:22:11.634Z,-4.73
2017-12-19T08:23:21.616Z,-4.71
2017-12-19T08:24:31.598Z,-4.65
2017-12-19T08:25:41.633Z,-4.62
2017-12-19T08:26:51.616Z,-4.61
2017-12-19T08:28:01.602Z,-4.56
2017-12-19T08:29:11.601Z,-4.53
2017-12-19T08:30:21.321Z,-4.53
2017-12-19T08:31:31.299Z,-4.51
2017-12-19T08:32:41.288Z,-4.42
2017-12-19T08:33:51.278Z,-4.51
2017-12-19T08:35:00.996Z,-4.45
2017-12-19T08:36:10.982Z,-4.47
2017-12-19T08:37:20.979Z,-4.41
2017-12-19T08:38:30.691Z,-4.47
2017-12-19T08:39:40.416Z,-4.41
2017-12-19T08:40:50.397Z,-4.38
2017-12-19T08:42:00.379Z,-4.3
2017-12-19T08:43:10.359Z,-4.37
2017-12-19T08:44:20.342Z,-4.33
2017-12-19T08:45:30.329Z,-4.4
2017-12-19T08:46:40.311Z,-4.45
2017-12-19T08:47:50.029Z,-4.38
2017-12-19T08:49:00.010Z,-4.42
2017-12-19T08:50:09.988Z,-4.44
2017-12-19T08:51:19.986Z,-4.44
2017-12-19T08:52:29.441Z,-4.45
2017-12-19T08:53:39.422Z,-4.41
2017-12-19T08:54:49.396Z,-4.49
2017-12-19T08:55:59.377Z,-4.37
2017-12-19T08:57:09.416Z,-4.31
2017-12-19T08:58:19.130Z,-4.4
2017-12-19T08:59:28.851Z,-4.45
2017-12-19T09:00:38.837Z,-4.58
2017-12-19T09:01:48.822Z,-4.61
2017-12-19T09:02:58.549Z,-4.59
2017-12-19T09:04:08.533Z,-4.56
2017-12-19T09:05:18.525Z,-4.59
2017-12-19T09:06:28.235Z,-4.71
2017-12-19T09:07:38.226Z,-4.69
2017-12-19T09:08:47.938Z,-4.65
2017-12-19T09:09:57.663Z,-4.65
2017-12-19T09:11:07.385Z,-4.65
2017-12-19T09:12:17.383Z,-4.69
2017-12-19T09:13:27.372Z,-4.67
2017-12-19T09:14:37.362Z,-4.67
2017-12-19T09:15:47.341Z,-4.53
2017-12-19T09:16:57.322Z,-4.56
2017-12-19T09:18:07.304Z,-4.47
2017-12-19T09:19:17.032Z,-4.55
2017-12-19T09:20:27.011Z,-4.55
2017-12-19T09:21:37.053Z,-4.55
2017-12-19T09:22:46.719Z,-4.58
2017-12-19T09:23:56.700Z,-4.42
2017-12-19T09:25:06.416Z,-4.44
2017-12-19T09:26:16.132Z,-4.4
2017-12-19T09:27:26.114Z,-4.42
2017-12-19T09:28:36.102Z,-4.42
2017-12-19T09:29:46.581Z,-4.42
2017-12-19T09:30:56.572Z,-4.4
2017-12-19T09:32:06.344Z,-4.44
2017-12-19T09:33:16.333Z,-4.4
2017-12-19T09:34:26.062Z,-4.44
2017-12-19T09:35:36.060Z,-4.38
2017-12-19T09:36:46.048Z,-4.42
2017-12-19T09:37:55.769Z,-4.4
2017-12-19T09:39:05.753Z,-4.44
2017-12-19T09:40:15.737Z,-4.41
2017-12-19T09:41:25.718Z,-4.37
2017-12-19T09:42:35.169Z,-4.31
2017-12-19T09:43:45.155Z,-4.24
2017-12-19T09:44:55.142Z,-4.38
2017-12-19T09:46:05.136Z,-4.4
2017-12-19T09:47:15.128Z,-4.4
2017-12-19T09:48:24.865Z,-4.31
2017-12-19T09:49:34.856Z,-4.27
2017-12-19T09:50:44.837Z,-4.26
2017-12-19T09:51:54.821Z,-4.26
2017-12-19T09:53:04.805Z,-4.2
2017-12-19T09:54:14.793Z,-4.26
2017-12-19T09:55:24.773Z,-4.19
2017-12-19T09:56:34.759Z,-4.17
2017-12-19T09:57:44.747Z,-4.16
2017-12-19T09:58:54.725Z,-4.14
2017-12-19T10:00:04.707Z,-4.19
2017-12-19T10:01:14.688Z,-4.09
2017-12-19T10:02:24.412Z,-4.06
2017-12-19T10:03:34.392Z,-3.99
2017-12-19T10:04:44.122Z,-3.91
2017-12-19T10:05:53.842Z,-3.81
2017-12-19T10:07:03.819Z,-3.71
2017-12-19T10:08:13.535Z,-3.74
2017-12-19T10:09:23.255Z,-3.66
2017-12-19T10:10:32.970Z,-3.65
2017-12-19T10:11:42.955Z,-3.58
2017-12-19T10:12:52.936Z,-3.51
2017-12-19T10:14:02.922Z,-3.46
2017-12-19T10:15:12.917Z,-3.44
2017-12-19T10:16:22.902Z,-3.4
2017-12-19T10:17:32.881Z,-3.43
2017-12-19T10:18:42.923Z,-3.48
2017-12-19T10:19:52.383Z,-3.47
2017-12-19T10:21:02.369Z,-3.61
2017-12-19T10:22:12.094Z,-3.48
2017-12-19T10:23:22.074Z,-3.5
2017-12-19T10:24:32.081Z,-3.51
2017-12-19T10:25:42.071Z,-3.47
2017-12-19T10:26:52.050Z,-3.58
2017-12-19T10:28:01.500Z,-3.47
2017-12-19T10:29:11.485Z,-3.61
2017-12-19T10:30:21.199Z,-3.44
2017-12-19T10:31:31.182Z,-3.43
2017-12-19T10:32:40.904Z,-3.41
2017-12-19T10:33:50.884Z,-3.41
2017-12-19T10:35:00.600Z,-3.4
2017-12-19T10:36:10.584Z,-3.4
2017-12-19T10:37:20.305Z,-3.33
2017-12-19T10:38:30.285Z,-3.3
2017-12-19T10:39:40.270Z,-3.19
2017-12-19T10:40:50.302Z,-3.17
2017-12-19T10:42:00.026Z,-3.17
2017-12-19T10:43:10.014Z,-3.11
2017-12-19T10:44:20.000Z,-3.17
2017-12-19T10:45:29.995Z,-3.14
2017-12-19T10:46:39.976Z,-3.12
2017-12-19T10:47:49.962Z,-2.99
2017-12-19T10:48:59.946Z,-3.02
2017-12-19T10:50:09.662Z,-3.02
2017-12-19T10:51:19.380Z,-2.9
2017-12-19T10:52:29.363Z,-2.86
2017-12-19T10:53:39.094Z,-2.86
2017-12-19T10:54:49.087Z,-2.87
2017-12-19T10:55:59.113Z,-2.9
2017-12-19T10:57:09.198Z,-3.02
2017-12-19T10:58:19.188Z,-3.02
2017-12-19T10:59:29.178Z,-3.04
2017-12-19T11:00:39.164Z,-3.04
2017-12-19T11:01:49.161Z,-3.09
2017-12-19T11:03:00.950Z,-3.2
2017-12-19T11:04:10.940Z,-3.15
2017-12-19T11:05:20.935Z,-3.11
2017-12-19T11:06:30.663Z,-3.19
2017-12-19T11:07:40.644Z,-3.14
2017-12-19T11:08:50.632Z,-3.25
2017-12-19T11:10:00.617Z,-3.22
2017-12-19T11:11:10.338Z,-3.27
2017-12-19T11:12:20.052Z,-3.25
2017-12-19T11:13:30.038Z,-3.22
2017-12-19T11:14:40.022Z,-3.27
2017-12-19T11:15:50.015Z,-3.3
2017-12-19T11:16:59.472Z,-3.19
2017-12-19T11:18:09.476Z,-3.15
2017-12-19T11:19:18.928Z,-3.14
2017-12-19T11:20:28.935Z,-3.04
2017-12-19T11:21:38.920Z,-3.08
2017-12-19T11:22:48.905Z,-3.09
2017-12-19T11:23:58.888Z,-3.07
2017-12-19T11:25:08.340Z,-3.05
2017-12-19T11:26:18.351Z,-3.02
2017-12-19T11:27:28.328Z,-2.91
2017-12-19T11:28:38.043Z,-2.93
2017-12-19T11:29:47.763Z,-2.84
2017-12-19T11:30:57.479Z,-2.87
2017-12-19T11:32:07.459Z,-2.86
2017-12-19T11:33:17.453Z,-2.78
2017-12-19T11:34:27.431Z,-2.83
2017-12-19T11:35:37.151Z,-2.78
2017-12-19T11:36:46.870Z,-2.8
2017-12-19T11:37:56.850Z,-2.69
2017-12-19T11:39:06.566Z,-2.76
2017-12-19T11:40:16.285Z,-2.75
2017-12-19T11:41:26.268Z,-2.76
2017-12-19T11:42:36.249Z,-2.75
2017-12-19T11:43:46.234Z,-2.7
2017-12-19T11:44:56.220Z,-2.78
2017-12-19T11:46:06.200Z,-2.69
2017-12-19T11:47:15.940Z,-2.73
2017-12-19T11:48:25.920Z,-2.62
2017-12-19T11:49:35.958Z,-2.75
2017-12-19T11:50:45.940Z,-2.7
2017-12-19T11:51:55.931Z,-2.8
2017-12-19T11:53:05.916Z,-2.89
2017-12-19T11:54:15.664Z,-2.84
2017-12-19T11:55:25.725Z,-2.81
2017-12-19T11:56:35.706Z,-2.73
2017-12-19T11:57:45.689Z,-2.8
2017-12-19T11:58:55.983Z,-2.63
2017-12-19T12:00:06.011Z,-2.66
2017-12-19T12:01:15.462Z,-2.62
2017-12-19T12:02:25.443Z,-2.66
2017-12-19T12:03:35.159Z,-2.54
2017-12-19T12:04:44.883Z,-2.52
2017-12-19T12:05:54.597Z,-2.58
2017-12-19T12:07:04.590Z,-2.62
2017-12-19T12:08:14.567Z,-2.57
2017-12-19T12:09:24.280Z,-2.58
2017-12-19T12:10:33.736Z,-2.69
2017-12-19T12:11:43.715Z,-2.69
2017-12-19T12:12:53.441Z,-2.68
2017-12-19T12:14:03.423Z,-2.68
2017-12-19T12:15:13.142Z,-2.69
2017-12-19T12:16:22.859Z,-2.7
2017-12-19T12:17:32.573Z,-2.7
2017-12-19T12:18:42.556Z,-2.8
2017-12-19T12:19:52.539Z,-2.81
2017-12-19T12:21:02.518Z,-2.75
2017-12-19T12:22:12.500Z,-2.66
2017-12-19T12:23:22.218Z,-2.7
2017-12-19T12:24:31.934Z,-2.57
2017-12-19T12:25:41.390Z,-2.55
2017-12-19T12:26:50.835Z,-2.51
2017-12-19T12:28:00.819Z,-2.48
2017-12-19T12:29:10.580Z,-2.44
2017-12-19T12:30:19.500Z,-2.47
2017-12-19T12:31:29.480Z,-2.4
2017-12-19T12:32:39.463Z,-2.45
2017-12-19T12:33:49.178Z,-2.44
2017-12-19T12:34:59.166Z,-2.44
2017-12-19T12:36:08.885Z,-2.44
2017-12-19T12:37:18.599Z,-2.44
2017-12-19T12:38:28.587Z,-2.44
2017-12-19T12:39:38.568Z,-2.4
2017-12-19T12:40:48.552Z,-2.45
2017-12-19T12:41:58.264Z,-2.47
2017-12-19T12:43:08.242Z,-2.48
2017-12-19T12:44:17.692Z,-2.4
2017-12-19T12:45:27.677Z,-2.47
2017-12-19T12:46:37.669Z,-2.39
2017-12-19T12:47:48.104Z,-2.4
2017-12-19T12:48:58.088Z,-2.39
2017-12-19T12:50:07.813Z,-2.51
2017-12-19T12:51:17.531Z,-2.48
2017-12-19T12:52:27.246Z,-2.36
2017-12-19T12:53:36.696Z,-2.39
2017-12-19T12:54:46.685Z,-2.4
2017-12-19T12:55:56.144Z,-2.37
2017-12-19T12:57:06.125Z,-2.36
2017-12-19T12:58:15.845Z,-2.4
2017-12-19T12:59:25.573Z,-2.34
2017-12-19T13:00:35.561Z,-2.36
2017-12-19T13:01:45.444Z,-2.39
2017-12-19T13:02:55.091Z,-2.37
2017-12-19T13:04:05.075Z,-2.45
2017-12-19T13:05:15.113Z,-2.42
2017-12-19T13:06:25.109Z,-2.44
2017-12-19T13:07:35.097Z,-2.51
2017-12-19T13:08:45.081Z,-2.54
2017-12-19T13:09:55.190Z,-2.78
2017-12-19T13:11:04.902Z,-2.83
2017-12-19T13:12:14.925Z,-3.02
2017-12-19T13:13:24.643Z,-2.96
2017-12-19T13:14:34.629Z,-3.08
2017-12-19T13:15:44.341Z,-3.17
2017-12-19T13:16:54.371Z,-3.23
2017-12-19T13:18:04.360Z,-3.46
2017-12-19T13:19:14.086Z,-3.46
2017-12-19T13:20:24.072Z,-3.47
2017-12-19T13:21:33.783Z,-3.61
2017-12-19T13:22:43.502Z,-3.66
2017-12-19T13:23:53.480Z,-3.69
2017-12-19T13:25:03.463Z,-3.77
2017-12-19T13:26:13.178Z,-3.9
2017-12-19T13:27:23.168Z,-3.81
2017-12-19T13:28:33.149Z,-3.87
2017-12-19T13:29:42.866Z,-3.8
2017-12-19T13:30:52.592Z,-3.8
2017-12-19T13:32:02.050Z,-3.8
2017-12-19T13:33:11.763Z,-3.78
2017-12-19T13:34:21.798Z,-3.78
2017-12-19T13:35:31.792Z,-3.66
2017-12-19T13:36:41.237Z,-3.69
2017-12-19T13:37:51.237Z,-3.71
2017-12-19T13:39:01.228Z,-3.64
2017-12-19T13:40:10.459Z,-3.64
2017-12-19T13:41:20.441Z,-3.66
2017-12-19T13:42:30.156Z,-3.74
2017-12-19T13:43:40.137Z,-3.74
2017-12-19T13:44:49.583Z,-3.61
2017-12-19T13:45:59.561Z,-3.59
2017-12-19T13:47:09.553Z,-3.61
2017-12-19T13:48:19.001Z,-3.5
2017-12-19T13:49:28.979Z,-3.48
2017-12-19T13:50:38.968Z,-3.47
2017-12-19T13:51:48.692Z,-3.44
2017-12-19T13:52:58.675Z,-3.38
2017-12-19T13:54:08.391Z,-3.33
2017-12-19T13:55:18.112Z,-3.44
2017-12-19T13:56:28.109Z,-3.38
2017-12-19T13:57:38.092Z,-3.36
2017-12-19T13:58:48.075Z,-3.38
2017-12-19T13:59:58.067Z,-3.38
2017-12-19T14:01:07.788Z,-3.3
2017-12-19T14:02:17.771Z,-3.41
2017-12-19T14:03:27.753Z,-3.48
2017-12-19T14:04:37.744Z,-3.44
2017-12-19T14:05:47.735Z,-3.4
2017-12-19T14:06:57.716Z,-3.38
2017-12-19T14:08:07.490Z,-3.41
2017-12-19T14:09:17.207Z,-3.37
2017-12-19T14:10:27.189Z,-3.41
2017-12-19T14:11:36.960Z,-3.26
2017-12-19T14:12:46.940Z,-3.2
2017-12-19T14:13:56.919Z,-3.23
2017-12-19T14:15:08.372Z,-3.26
2017-12-19T14:16:18.352Z,-3.25
2017-12-19T14:17:28.064Z,-3.25
2017-12-19T14:18:38.044Z,-3.14
2017-12-19T14:19:47.761Z,-3.2
2017-12-19T14:20:57.743Z,-3.15
2017-12-19T14:22:07.460Z,-3.12
2017-12-19T14:23:17.438Z,-3.11
2017-12-19T14:24:27.418Z,-3.08
2017-12-19T14:25:37.406Z,-3.02
2017-12-19T14:26:47.398Z,-3.07
2017-12-19T14:27:57.388Z,-3.07
2017-12-19T14:29:07.382Z,-3.07
2017-12-19T14:30:17.366Z,-2.99
2017-12-19T14:31:27.427Z,-3.07
2017-12-19T14:32:37.165Z,-3.09
2017-12-19T14:33:47.159Z,-3.15
2017-12-19T14:34:57.145Z,-3.09
2017-12-19T14:36:07.125Z,-3.12
2017-12-19T14:37:17.105Z,-3.09
2017-12-19T14:38:27.082Z,-3.08
2017-12-19T14:39:36.803Z,-3.15
2017-12-19T14:40:46.787Z,-3.08
2017-12-19T14:41:56.777Z,-3.14
2017-12-19T14:43:06.233Z,-3.14
2017-12-19T14:44:16.216Z,-3.15
2017-12-19T14:45:25.931Z,-3.15
2017-12-19T14:46:35.656Z,-3.14
2017-12-19T14:47:45.654Z,-3.15
2017-12-19T14:48:55.367Z,-3.11
2017-12-19T14:50:05.087Z,-3.14
2017-12-19T14:51:14.841Z,-3.12
2017-12-19T14:52:24.525Z,-3.25
2017-12-19T14:53:34.533Z,-3.38
2017-12-19T14:54:43.981Z,-3.4
2017-12-19T14:55:53.692Z,-3.4
2017-12-19T14:57:03.407Z,-3.38
2017-12-19T14:58:13.393Z,-3.4
2017-12-19T14:59:23.209Z,-3.38
2017-12-19T15:00:33.194Z,-3.46
2017-12-19T15:01:43.177Z,-3.46
2017-12-19T15:02:53.156Z,-3.5
2017-12-19T15:04:03.142Z,-3.53
2017-12-19T15:05:13.180Z,-3.58
2017-12-19T15:06:23.159Z,-3.64